Time;durP1;ratioP1;P1;durP2;ratioP2;P2;SDS_P1;SDS_P2;PMS_P1;PMS_P2;Temp;Humidity;BMP_temperature;BMP_pressure;BME280_temperature;BME280_humidity;BME280_pressure;Samples;Min_cycle;Max_cycle;Signal;HPM_P1;HPM_P2
2021/01/04 00:00:41;;;;;;;24.90;10.97;;;2.90;90.80;;;;;;5053231;28;20029;-72
2021/01/04 00:03:19;;;;;;;;;;;3.00;90.80;;;;;;5054404;28;20021;-73
2021/01/04 00:06:07;;;;;;;25.03;12.30;;;2.90;90.90;;;;;;5051417;28;19913;-73
2021/01/04 00:08:39;;;;;;;25.60;12.63;;;2.90;90.90;;;;;;5053069;28;20052;-73
2021/01/04 00:11:04;;;;;;;23.52;12.20;;;2.90;90.90;;;;;;5053376;28;20045;-73
2021/01/04 00:13:37;;;;;;;24.50;12.03;;;2.90;91.00;;;;;;5052945;28;20080;-73
2021/01/04 00:16:17;;;;;;;26.40;13.30;;;2.90;91.00;;;;;;5052995;28;20053;-73
2021/01/04 00:19:22;;;;;;;27.23;12.47;;;2.90;91.00;;;;;;5052670;28;20092;-73
2021/01/04 00:22:05;;;;;;;26.60;13.10;;;2.90;91.00;;;;;;5053101;28;20028;-73
2021/01/04 00:24:47;;;;;;;24.63;12.50;;;2.90;91.00;;;;;;5052882;28;20490;-73
2021/01/04 00:27:31;;;;;;;28.07;13.63;;;2.90;90.90;;;;;;5053318;28;20049;-73
2021/01/04 00:30:13;;;;;;;25.53;11.80;;;2.90;90.90;;;;;;5053395;28;20104;-73
2021/01/04 00:32:40;;;;;;;30.20;12.80;;;2.90;90.70;;;;;;5051040;28;20021;-73
2021/01/04 00:35:12;;;;;;;25.47;12.83;;;2.90;90.80;;;;;;5052856;28;20078;-73
2021/01/04 00:38:08;;;;;;;26.58;12.70;;;2.90;90.80;;;;;;5052624;28;20047;-73
2021/01/04 00:40:52;;;;;;;26.80;12.63;;;2.90;90.80;;;;;;5051164;28;20036;-72
2021/01/04 00:43:29;;;;;;;26.90;12.57;;;2.90;90.80;;;;;;5053095;28;20067;-73
2021/01/04 00:45:55;;;;;;;26.17;11.83;;;2.90;90.80;;;;;;5052902;28;20025;-73
2021/01/04 00:48:40;;;;;;;28.00;13.33;;;2.90;90.80;;;;;;5051693;28;20078;-73
2021/01/04 00:51:43;;;;;;;28.30;12.93;;;3.00;90.80;;;;;;5051231;28;20025;-73
2021/01/04 00:54:28;;;;;;;;;;;2.90;90.70;;;;;;5052010;28;20087;-74
2021/01/04 00:57:09;;;;;;;26.13;12.60;;;3.00;90.80;;;;;;5053014;28;19905;-73
2021/01/04 01:00:10;;;;;;;27.27;12.30;;;2.90;90.80;;;;;;5052268;28;20024;-73
2021/01/04 01:02:48;;;;;;;27.87;13.10;;;2.90;90.80;;;;;;5043439;28;20033;-73
2021/01/04 01:05:43;;;;;;;27.07;12.77;;;2.90;90.80;;;;;;5051494;28;20036;-73
2021/01/04 01:08:15;;;;;;;25.20;12.07;;;2.90;90.80;;;;;;5052610;28;20541;-73
2021/01/04 01:10:51;;;;;;;26.80;12.85;;;2.90;90.80;;;;;;5052130;28;20033;-73
2021/01/04 01:13:34;;;;;;;25.67;12.70;;;2.80;90.80;;;;;;5051515;28;20029;-73
2021/01/04 01:16:28;;;;;;;27.13;12.60;;;2.90;90.90;;;;;;5051475;28;20477;-73
2021/01/04 01:19:39;;;;;;;29.37;13.37;;;2.80;90.90;;;;;;5051612;28;20025;-73
2021/01/04 01:22:06;;;;;;;31.70;14.03;;;2.80;90.90;;;;;;5052526;28;20104;-73
2021/01/04 01:24:33;;;;;;;28.33;13.33;;;2.80;90.90;;;;;;5052086;28;20029;-72
2021/01/04 01:27:36;;;;;;;28.23;13.20;;;2.80;90.90;;;;;;5052483;28;20120;-73
2021/01/04 01:30:34;;;;;;;28.60;14.53;;;2.80;90.90;;;;;;5057777;28;20355;-73
2021/01/04 01:33:38;;;;;;;25.50;13.37;;;2.80;91.00;;;;;;5039437;28;20041;-73
2021/01/04 01:36:25;;;;;;;25.20;13.07;;;2.80;91.00;;;;;;5042097;28;20029;-73
2021/01/04 01:39:09;;;;;;;28.20;14.27;;;2.80;91.00;;;;;;5058437;28;20109;-73
2021/01/04 01:42:21;;;;;;;30.43;14.83;;;2.80;90.90;;;;;;5058707;28;20028;-73
2021/01/04 01:44:56;;;;;;;28.67;13.50;;;2.80;90.90;;;;;;5058351;28;20508;-73
2021/01/04 01:47:34;;;;;;;33.70;15.10;;;2.80;91.00;;;;;;5058572;28;20482;-73
2021/01/04 01:50:09;;;;;;;33.30;14.37;;;2.80;90.90;;;;;;5058805;28;20029;-73
2021/01/04 01:53:06;;;;;;;33.83;15.83;;;2.80;90.90;;;;;;5058247;28;20025;-73
2021/01/04 01:55:39;;;;;;;31.57;14.67;;;2.80;91.00;;;;;;5058482;28;20052;-73
2021/01/04 01:58:35;;;;;;;32.03;13.90;;;2.80;90.90;;;;;;5057638;28;20024;-73
2021/01/04 02:01:20;;;;;;;34.60;14.43;;;2.80;90.90;;;;;;5058872;28;20036;-73
2021/01/04 02:04:06;;;;;;;32.30;15.27;;;2.80;90.80;;;;;;5057029;28;20028;-73
2021/01/04 02:06:51;;;;;;;31.87;14.80;;;2.80;90.80;;;;;;5058768;28;20029;-73
2021/01/04 02:09:33;;;;;;;31.50;14.77;;;2.80;90.80;;;;;;5057606;28;20025;-73
2021/01/04 02:12:15;;;;;;;30.10;14.20;;;2.80;90.70;;;;;;5058920;28;20022;-73
2021/01/04 02:14:59;;;;;;;34.33;15.45;;;2.80;90.80;;;;;;5056916;28;20029;-73
2021/01/04 02:18:04;;;;;;;30.20;14.83;;;2.80;90.90;;;;;;5058693;28;20025;-73
2021/01/04 02:20:33;;;;;;;33.93;15.10;;;2.80;90.80;;;;;;5058610;28;20031;-73
2021/01/04 02:23:24;;;;;;;31.33;15.43;;;2.80;90.70;;;;;;5058363;28;20040;-73
2021/01/04 02:25:52;;;;;;;33.75;15.40;;;2.80;90.70;;;;;;5056428;28;20139;-73
2021/01/04 02:28:25;;;;;;;32.43;14.57;;;2.80;90.70;;;;;;5058582;28;20029;-73
2021/01/04 02:30:51;;;;;;;35.47;15.30;;;2.80;90.70;;;;;;5058033;28;20025;-73
2021/01/04 02:33:18;;;;;;;33.57;16.13;;;2.80;90.70;;;;;;5057230;28;20055;-73
2021/01/04 02:35:45;;;;;;;32.03;15.70;;;2.80;90.70;;;;;;5056569;28;20166;-73
2021/01/04 02:38:11;;;;;;;32.30;14.83;;;2.80;90.80;;;;;;5058194;28;20033;-73
2021/01/04 02:40:37;;;;;;;34.83;15.80;;;2.80;90.70;;;;;;5054850;28;20028;-73
2021/01/04 02:43:03;;;;;;;32.13;14.63;;;2.80;90.70;;;;;;5054955;28;20033;-73
2021/01/04 02:45:33;;;;;;;35.37;15.80;;;2.80;90.70;;;;;;5055150;28;20025;-73
2021/01/04 02:48:32;;;;;;;30.83;15.07;;;2.80;90.70;;;;;;5054655;28;20029;-73
2021/01/04 02:51:08;;;;;;;31.07;14.93;;;2.80;90.80;;;;;;5053191;28;20045;-73
2021/01/04 02:54:12;;;;;;;33.03;15.97;;;2.80;90.70;;;;;;5055170;28;20470;-73
2021/01/04 02:56:53;;;;;;;32.20;15.30;;;2.80;90.70;;;;;;5015401;28;20120;-73
2021/01/04 02:59:48;;;;;;;30.30;14.23;;;2.80;90.70;;;;;;5032812;28;20116;-73
2021/01/04 03:02:37;;;;;;;28.17;14.47;;;2.80;90.70;;;;;;5032758;28;20029;-73
2021/01/04 03:05:09;;;;;;;32.33;16.70;;;2.80;90.70;;;;;;5032518;28;20025;-73
2021/01/04 03:07:35;;;;;;;31.77;15.10;;;2.80;90.70;;;;;;5032423;28;20037;-73
2021/01/04 03:10:36;;;;;;;33.10;15.03;;;2.90;90.60;;;;;;5031894;28;20041;-73
2021/01/04 03:13:29;;;;;;;33.63;15.40;;;2.80;90.60;;;;;;5019613;28;20037;-73
2021/01/04 03:16:27;;;;;;;35.42;16.02;;;2.90;90.60;;;;;;5031852;28;20112;-73
2021/01/04 03:18:55;;;;;;;31.90;15.00;;;2.90;90.50;;;;;;5030920;28;20489;-73
2021/01/04 03:21:26;;;;;;;32.63;15.40;;;2.90;90.40;;;;;;5032255;28;20112;-73
2021/01/04 03:23:53;;;;;;;34.10;16.60;;;2.80;90.40;;;;;;5031648;28;20042;-73
2021/01/04 03:26:31;;;;;;;35.43;16.33;;;2.80;90.40;;;;;;5033098;28;20045;-73
2021/01/04 03:28:57;;;;;;;32.73;16.03;;;2.80;90.50;;;;;;5052557;28;20039;-73
2021/01/04 03:31:22;;;;;;;32.57;15.37;;;2.90;90.60;;;;;;5054376;28;20028;-73
2021/01/04 03:33:48;;;;;;;34.23;15.77;;;2.90;90.40;;;;;;5053729;28;20526;-73
2021/01/04 03:36:14;;;;;;;33.90;15.87;;;2.90;90.30;;;;;;5054274;28;20108;-73
2021/01/04 03:38:40;;;;;;;35.23;15.23;;;2.80;90.30;;;;;;5052334;28;20470;-73
2021/01/04 03:41:07;;;;;;;33.83;15.70;;;2.80;90.40;;;;;;5054161;28;20029;-73
2021/01/04 03:43:33;;;;;;;31.07;15.10;;;2.90;90.40;;;;;;5052824;28;20025;-73
2021/01/04 03:45:59;;;;;;;31.83;14.87;;;2.90;90.20;;;;;;5053426;28;20037;-73
2021/01/04 03:48:25;;;;;;;34.77;16.40;;;2.90;90.20;;;;;;5053789;28;20025;-73
2021/01/04 03:50:51;;;;;;;35.00;15.93;;;2.90;90.20;;;;;;5052811;28;20079;-73
2021/01/04 03:53:18;;;;;;;30.10;14.17;;;2.90;90.30;;;;;;5052132;28;20487;-73
2021/01/04 03:55:44;;;;;;;32.13;14.60;;;2.90;90.30;;;;;;5052191;28;20446;-73
2021/01/04 03:58:10;;;;;;;30.50;14.27;;;2.90;90.20;;;;;;5052599;28;20521;-74
2021/01/04 04:00:36;;;;;;;31.50;14.80;;;2.90;90.20;;;;;;5052264;28;20049;-74
2021/01/04 04:03:02;;;;;;;37.43;15.60;;;2.90;90.20;;;;;;5053147;28;20064;-73
2021/01/04 04:05:30;;;;;;;34.07;15.83;;;2.80;90.30;;;;;;5052316;28;20462;-73
2021/01/04 04:07:56;;;;;;;30.60;15.13;;;2.80;90.40;;;;;;5053079;28;20104;-73
2021/01/04 04:10:21;;;;;;;32.97;15.10;;;2.80;90.30;;;;;;5052353;28;20121;-73
2021/01/04 04:12:47;;;;;;;32.97;15.67;;;2.80;90.30;;;;;;5053244;28;20550;-73
2021/01/04 04:15:16;;;;;;;32.83;14.97;;;2.90;90.20;;;;;;5053559;28;20029;-73
2021/01/04 04:17:41;;;;;;;31.37;14.97;;;2.80;90.30;;;;;;5052687;28;20033;-73
2021/01/04 04:20:16;;;;;;;34.63;15.27;;;2.80;90.30;;;;;;5053225;28;20021;-73
2021/01/04 04:22:42;;;;;;;34.53;16.13;;;2.80;90.30;;;;;;5052583;28;20108;-72
2021/01/04 04:25:09;;;;;;;34.33;15.80;;;2.80;90.30;;;;;;5053485;28;20430;-73
2021/01/04 04:27:35;;;;;;;31.53;14.77;;;2.80;90.30;;;;;;5052731;28;20057;-73
2021/01/04 04:30:03;;;;;;;32.27;14.20;;;2.80;90.30;;;;;;5051432;28;20303;-73
2021/01/04 04:32:28;;;;;;;33.33;14.83;;;2.80;90.30;;;;;;5053254;28;20017;-73
2021/01/04 04:34:54;;;;;;;33.70;15.23;;;2.90;90.30;;;;;;5052868;28;20052;-73
2021/01/04 04:37:19;;;;;;;32.83;15.23;;;2.90;90.20;;;;;;5051897;28;20031;-73
2021/01/04 04:39:45;;;;;;;35.67;15.53;;;2.80;90.30;;;;;;5051214;28;20373;-73
2021/01/04 04:42:14;;;;;;;35.90;15.80;;;2.80;90.40;;;;;;5053147;28;20028;-73
2021/01/04 04:44:48;;;;;;;36.40;15.43;;;2.80;90.40;;;;;;5053007;28;20025;-73
2021/01/04 04:47:52;;;;;;;35.03;16.20;;;2.70;90.40;;;;;;5053109;28;20036;-73
2021/01/04 04:50:43;;;;;;;31.10;14.00;;;2.70;90.40;;;;;;5052750;28;20025;-73
2021/01/04 04:53:15;;;;;;;33.47;16.40;;;2.70;90.50;;;;;;5052635;28;20056;-73
2021/01/04 04:55:49;;;;;;;39.00;17.20;;;2.80;90.40;;;;;;5052605;28;20029;-73
2021/01/04 04:58:36;;;;;;;39.33;17.03;;;2.80;90.40;;;;;;5052603;28;20096;-73
2021/01/04 05:01:13;;;;;;;37.80;16.27;;;2.80;90.30;;;;;;5051933;28;20035;-73
2021/01/04 05:04:02;;;;;;;36.93;16.43;;;2.70;90.30;;;;;;5052385;28;20025;-73
2021/01/04 05:06:46;;;;;;;34.03;15.73;;;2.70;90.30;;;;;;5042085;28;20041;-73
2021/01/04 05:09:23;;;;;;;37.10;16.80;;;2.70;90.40;;;;;;5053070;28;20056;-73
2021/01/04 05:12:05;;;;;;;35.27;15.37;;;2.60;90.50;;;;;;5050801;28;20094;-73
2021/01/04 05:14:33;;;;;;;37.13;16.65;;;2.70;90.60;;;;;;5052598;28;20102;-73
2021/01/04 05:16:59;;;;;;;36.47;15.60;;;2.70;90.40;;;;;;5051717;28;20028;-73
2021/01/04 05:19:37;;;;;;;35.00;15.37;;;2.70;90.40;;;;;;5052246;28;20492;-73
2021/01/04 05:22:27;;;;;;;35.13;15.47;;;2.70;90.30;;;;;;5050746;28;20187;-73
2021/01/04 05:25:11;;;;;;;34.50;16.00;;;2.70;90.30;;;;;;5052262;28;20090;-73
2021/01/04 05:27:50;;;;;;;30.73;14.67;;;2.70;90.20;;;;;;5050802;28;20105;-73
2021/01/04 05:30:37;;;;;;;35.77;16.00;;;2.80;90.30;;;;;;5051485;28;20021;-73
2021/01/04 05:33:27;;;;;;;36.60;16.20;;;2.70;90.30;;;;;;5051839;28;20024;-73
2021/01/04 05:36:04;;;;;;;33.07;15.53;;;2.70;90.30;;;;;;5051834;28;20474;-73
2021/01/04 05:38:37;;;;;;;32.63;15.23;;;2.70;90.30;;;;;;5052541;28;20021;-73
2021/01/04 05:41:37;;;;;;;35.00;14.23;;;2.70;90.30;;;;;;5051811;28;20025;-73
2021/01/04 05:44:13;;;;;;;33.10;15.13;;;2.70;90.30;;;;;;5051669;28;20100;-73
2021/01/04 05:47:20;;;;;;;31.07;14.30;;;2.70;90.20;;;;;;5052271;28;20036;-73
2021/01/04 05:49:56;;;;;;;35.97;15.90;;;2.70;90.30;;;;;;5051895;28;20025;-73
2021/01/04 05:52:22;;;;;;;36.60;15.17;;;2.70;90.30;;;;;;5052393;28;20037;-73
2021/01/04 05:54:47;;;;;;;33.63;15.33;;;2.60;90.20;;;;;;5051314;28;20025;-72
2021/01/04 05:57:15;;;;;;;33.20;15.00;;;2.70;90.30;;;;;;5052214;28;20057;-73
2021/01/04 05:59:54;;;;;;;35.27;15.40;;;2.70;90.30;;;;;;5052122;28;20021;-73
2021/01/04 06:02:29;;;;;;;34.70;14.67;;;2.60;90.40;;;;;;5050908;28;20029;-73
2021/01/04 06:05:08;;;;;;;36.23;15.17;;;2.60;90.50;;;;;;5050294;28;20493;-73
2021/01/04 06:07:36;;;;;;;33.83;14.63;;;2.70;90.40;;;;;;5052250;28;20079;-73
2021/01/04 06:10:01;;;;;;;36.93;15.90;;;2.60;90.30;;;;;;5051424;28;20040;-73
2021/01/04 06:12:34;;;;;;;31.97;14.20;;;2.60;90.60;;;;;;5050450;28;20025;-73
2021/01/04 06:15:01;;;;;;;36.43;15.23;;;2.60;90.60;;;;;;5052214;28;20063;-73
2021/01/04 06:17:43;;;;;;;38.00;16.03;;;2.50;90.70;;;;;;5054524;28;20033;-73
2021/01/04 06:20:20;;;;;;;34.55;14.82;;;2.50;90.70;;;;;;5054808;28;20389;-73
2021/01/04 06:22:48;;;;;;;34.87;15.23;;;2.50;90.70;;;;;;5055762;28;20037;-73
2021/01/04 06:25:16;;;;;;;36.67;16.47;;;2.60;90.60;;;;;;5055663;28;20021;-73
2021/01/04 06:27:48;;;;;;;34.33;14.03;;;2.60;90.60;;;;;;5054008;28;20132;-73
2021/01/04 06:30:22;;;;;;;39.38;16.58;;;2.60;90.50;;;;;;5054095;28;20029;-73
2021/01/04 06:32:49;;;;;;;32.23;13.53;;;2.60;90.50;;;;;;5055582;28;20482;-73
2021/01/04 06:35:23;;;;;;;36.03;14.77;;;2.60;90.40;;;;;;5055517;28;20090;-73
2021/01/04 06:37:49;;;;;;;37.40;15.50;;;2.60;90.40;;;;;;5054966;28;20470;-73
2021/01/04 06:40:34;;;;;;;37.57;15.47;;;2.60;90.40;;;;;;5055129;28;20595;-73
2021/01/04 06:43:12;;;;;;;34.60;14.43;;;2.60;90.30;;;;;;5054752;28;20036;-73
2021/01/04 06:46:19;;;;;;;32.27;14.07;;;2.60;90.40;;;;;;5055166;28;20025;-73
2021/01/04 06:48:45;;;;;;;32.93;14.13;;;2.60;90.50;;;;;;5054054;28;20040;-73
2021/01/04 06:51:48;;;;;;;31.87;13.63;;;2.60;90.60;;;;;;5054661;28;20458;-73
2021/01/04 06:54:51;;;;;;;34.27;13.90;;;2.60;90.50;;;;;;5054470;28;20481;-73
2021/01/04 06:57:50;;;;;;;34.37;14.30;;;2.60;90.40;;;;;;5055167;28;20505;-73
2021/01/04 07:00:27;;;;;;;34.47;14.53;;;2.60;90.50;;;;;;5055052;28;20036;-73
2021/01/04 07:03:18;;;;;;;32.53;13.83;;;2.60;90.50;;;;;;5054274;28;20033;-73
2021/01/04 07:05:51;;;;;;;39.67;15.70;;;2.60;90.60;;;;;;5053666;28;20032;-73
2021/01/04 07:08:28;;;;;;;34.83;13.80;;;2.60;90.50;;;;;;5053780;28;20028;-73
2021/01/04 07:11:35;;;;;;;40.60;15.17;;;2.60;90.50;;;;;;5053950;28;20032;-72
2021/01/04 07:14:14;;;;;;;37.40;14.53;;;2.50;90.60;;;;;;5052826;28;20469;-73
2021/01/04 07:16:50;;;;;;;34.80;14.07;;;2.50;90.60;;;;;;5053389;28;20082;-73
2021/01/04 07:19:24;;;;;;;35.57;14.43;;;2.50;90.70;;;;;;5053612;28;20434;-73
2021/01/04 07:21:55;;;;;;;34.90;15.03;;;2.50;90.70;;;;;;5054823;28;20035;-73
2021/01/04 07:24:24;;;;;;;32.40;15.17;;;2.60;90.80;;;;;;5053453;28;20467;-73
2021/01/04 07:27:18;;;;;;;35.93;14.87;;;2.60;90.70;;;;;;5054145;28;20285;-73
2021/01/04 07:30:16;;;;;;;33.97;14.37;;;2.60;90.60;;;;;;5053301;28;20041;-73
2021/01/04 07:33:18;;;;;;;37.43;14.37;;;2.60;90.50;;;;;;5054348;28;20102;-73
2021/01/04 07:35:54;;;;;;;34.45;14.15;;;2.60;90.50;;;;;;5054718;28;20021;-73
2021/01/04 07:38:42;;;;;;;38.57;15.27;;;2.60;90.50;;;;;;5053036;28;20032;-73
2021/01/04 07:41:48;;;;;;;38.33;15.33;;;2.60;90.50;;;;;;5053692;28;20033;-73
2021/01/04 07:44:22;;;;;;;38.30;14.83;;;2.60;90.50;;;;;;5053634;28;20474;-73
2021/01/04 07:47:06;;;;;;;30.67;13.07;;;2.60;90.50;;;;;;5054042;28;20036;-73
2021/01/04 07:49:32;;;;;;;37.70;14.77;;;2.60;90.50;;;;;;5054153;28;20107;-73
2021/01/04 07:52:09;;;;;;;38.73;15.60;;;2.60;90.50;;;;;;5053489;28;20069;-73
2021/01/04 07:54:56;;;;;;;38.10;15.33;;;2.50;90.60;;;;;;5053675;28;20025;-72
2021/01/04 07:57:46;;;;;;;37.47;15.40;;;2.50;90.60;;;;;;5053940;28;20041;-73
2021/01/04 08:00:37;;;;;;;34.83;15.10;;;2.50;90.70;;;;;;5053538;28;20079;-73
2021/01/04 08:03:30;;;;;;;38.00;15.00;;;2.60;90.70;;;;;;5053223;28;20025;-73
2021/01/04 08:06:11;;;;;;;38.30;15.60;;;2.60;90.70;;;;;;5053063;28;20074;-73
2021/01/04 08:08:47;;;;;;;42.97;17.53;;;2.60;90.70;;;;;;5053512;28;20459;-73
2021/01/04 08:11:37;;;;;;;43.20;15.90;;;2.50;90.70;;;;;;5051928;28;20021;-73
2021/01/04 08:14:24;;;;;;;42.60;17.43;;;2.50;90.80;;;;;;5052833;28;20032;-73
2021/01/04 08:16:59;;;;;;;43.77;16.00;;;2.50;90.80;;;;;;5053975;28;20114;-73
2021/01/04 08:19:26;;;;;;;44.10;16.57;;;2.60;90.80;;;;;;5053538;28;20107;-73
2021/01/04 08:22:28;;;;;;;47.33;17.23;;;2.50;90.70;;;;;;5052084;28;20033;-73
2021/01/04 08:25:05;;;;;;;46.35;16.85;;;2.50;90.90;;;;;;5052295;28;20040;-73
2021/01/04 08:28:08;;;;;;;43.30;16.57;;;2.50;90.90;;;;;;5051701;28;20041;-73
2021/01/04 08:30:42;;;;;;;38.67;15.70;;;2.50;90.90;;;;;;5052982;28;20025;-73
2021/01/04 08:33:19;;;;;;;40.30;15.50;;;2.50;90.80;;;;;;5052707;28;20032;-73
2021/01/04 08:35:47;;;;;;;44.83;16.53;;;2.60;90.80;;;;;;5053284;28;20043;-73
2021/01/04 08:38:28;;;;;;;46.97;17.53;;;2.60;90.80;;;;;;5050534;28;20494;-73
2021/01/04 08:41:22;;;;;;;44.25;16.58;;;2.60;90.70;;;;;;5053103;28;20070;-74
2021/01/04 08:43:52;;;;;;;40.63;16.67;;;2.60;90.60;;;;;;5053182;28;20036;-73
2021/01/04 08:46:23;;;;;;;37.73;15.77;;;2.60;90.60;;;;;;5052431;28;20032;-73
2021/01/04 08:48:51;;;;;;;39.13;16.27;;;2.60;90.60;;;;;;5052927;28;20025;-73
2021/01/04 08:51:29;;;;;;;41.97;15.83;;;2.60;90.70;;;;;;5052503;28;20048;-73
2021/01/04 08:54:03;;;;;;;44.07;16.03;;;2.70;90.70;;;;;;5051565;28;20037;-73
2021/01/04 08:57:13;;;;;;;41.27;15.43;;;2.60;90.70;;;;;;5052852;28;20086;-73
2021/01/04 08:59:59;;;;;;;37.83;15.10;;;2.70;90.70;;;;;;5047012;28;20058;-73
2021/01/04 09:02:41;;;;;;;38.87;15.27;;;2.70;90.60;;;;;;5052760;28;20071;-73
2021/01/04 09:05:09;;;;;;;;;;;2.70;90.60;;;;;;5052636;28;20025;-73
2021/01/04 09:07:48;;;;;;;38.50;15.67;;;2.70;90.70;;;;;;5052630;28;19966;-73
2021/01/04 09:10:37;;;;;;;37.63;14.40;;;2.70;90.60;;;;;;5050846;28;20029;-73
2021/01/04 09:13:10;;;;;;;41.37;16.07;;;2.70;90.50;;;;;;5051999;28;20021;-73
2021/01/04 09:15:37;;;;;;;40.60;16.60;;;2.70;90.50;;;;;;5051276;28;20111;-73
2021/01/04 09:18:03;;;;;;;39.87;15.03;;;2.70;90.60;;;;;;5050761;28;20025;-73
2021/01/04 09:20:52;;;;;;;42.60;16.47;;;2.70;90.60;;;;;;5052697;28;20090;-73
2021/01/04 09:23:21;;;;;;;38.17;14.33;;;2.70;90.60;;;;;;5051891;28;20275;-73
2021/01/04 09:25:53;;;;;;;38.17;15.60;;;2.80;90.60;;;;;;5052031;28;20053;-73
2021/01/04 09:28:22;;;;;;;40.87;15.47;;;2.70;90.50;;;;;;5050540;28;20029;-73
2021/01/04 09:30:49;;;;;;;36.27;14.67;;;2.70;90.50;;;;;;5051266;28;20025;-73
2021/01/04 09:33:21;;;;;;;37.93;14.97;;;2.80;90.60;;;;;;5051805;28;20024;-74
2021/01/04 09:35:48;;;;;;;;;;;2.80;90.60;;;;;;5051558;28;20485;-73
2021/01/04 09:38:22;;;;;;;39.97;15.20;;;2.70;90.60;;;;;;5051760;28;20007;-73
2021/01/04 09:41:02;;;;;;;41.00;16.43;;;2.80;90.60;;;;;;5051202;28;20029;-73
2021/01/04 09:43:34;;;;;;;40.33;15.43;;;2.80;90.60;;;;;;5051132;28;20025;-73
2021/01/04 09:46:20;;;;;;;43.33;16.08;;;2.80;90.60;;;;;;5051817;28;20021;-72
2021/01/04 09:49:03;;;;;;;41.93;16.17;;;2.90;90.60;;;;;;5051413;28;20037;-73
2021/01/04 09:51:53;;;;;;;37.43;14.57;;;2.90;90.50;;;;;;5056007;28;20086;-74
2021/01/04 09:54:28;;;;;;;36.80;14.20;;;2.90;90.40;;;;;;5055953;28;20055;-73
2021/01/04 09:57:02;;;;;;;41.03;16.23;;;2.90;90.30;;;;;;5056246;28;20075;-73
2021/01/04 09:59:28;;;;;;;41.43;14.83;;;2.90;90.40;;;;;;5054920;28;20460;-73
2021/01/04 10:02:00;;;;;;;38.47;15.00;;;2.90;90.40;;;;;;5056078;28;20028;-73
2021/01/04 10:04:46;;;;;;;39.70;15.43;;;2.90;90.50;;;;;;5055982;28;20466;-73
2021/01/04 10:07:28;;;;;;;34.90;14.93;;;2.90;90.30;;;;;;5053703;28;20084;-73
2021/01/04 10:09:55;;;;;;;40.50;15.00;;;3.00;90.30;;;;;;5056119;28;20083;-73
2021/01/04 10:12:24;;;;;;;41.53;16.03;;;3.00;90.20;;;;;;5055119;28;20055;-73
2021/01/04 10:14:57;;;;;;;41.13;15.97;;;3.00;90.30;;;;;;5055903;28;20498;-74
2021/01/04 10:17:36;;;;;;;37.03;14.93;;;3.10;90.20;;;;;;5053964;28;20032;-73
2021/01/04 10:20:21;;;;;;;35.93;14.50;;;3.10;90.00;;;;;;5054340;28;20061;-73
2021/01/04 10:22:50;;;;;;;34.97;13.80;;;3.10;90.30;;;;;;5055764;28;20033;-73
2021/01/04 10:25:29;;;;;;;35.97;14.67;;;3.20;90.00;;;;;;5055129;28;20021;-73
2021/01/04 10:27:58;;;;;;;38.80;14.50;;;3.20;89.80;;;;;;5055865;28;20091;-74
2021/01/04 10:30:26;;;;;;;39.37;13.93;;;3.20;89.90;;;;;;5054966;28;20025;-73
2021/01/04 10:33:07;;;;;;;33.70;14.07;;;3.20;89.50;;;;;;5055506;28;20040;-73
2021/01/04 10:35:33;;;;;;;32.28;13.82;;;3.20;89.70;;;;;;5054527;28;20024;-73
2021/01/04 10:38:19;;;;;;;34.63;14.30;;;3.20;89.50;;;;;;5053941;28;20073;-73
2021/01/04 10:40:49;;;;;;;36.40;14.60;;;3.20;89.50;;;;;;5055748;28;20037;-73
2021/01/04 10:43:22;;;;;;;37.90;14.57;;;3.10;89.50;;;;;;5053476;28;20111;-73
2021/01/04 10:45:48;;;;;;;38.43;14.07;;;3.20;89.60;;;;;;5055297;28;20021;-73
2021/01/04 10:48:19;;;;;;;34.87;14.33;;;3.20;89.60;;;;;;5054352;28;20071;-72
2021/01/04 10:50:58;;;;;;;37.80;15.02;;;3.20;89.80;;;;;;5054974;28;20027;-73
2021/01/04 10:53:36;;;;;;;36.77;14.73;;;3.20;89.70;;;;;;5053079;28;20448;-73
2021/01/04 10:56:15;;;;;;;36.10;13.93;;;3.20;89.60;;;;;;5053782;28;20032;-73
2021/01/04 10:59:18;;;;;;;32.17;14.40;;;3.20;89.70;;;;;;5055044;28;20028;-73
2021/01/04 11:01:48;;;;;;;34.40;13.35;;;3.30;89.80;;;;;;5049329;28;20037;-73
2021/01/04 11:04:17;;;;;;;31.10;12.63;;;3.30;89.40;;;;;;5054006;28;20414;-73
2021/01/04 11:06:45;;;;;;;31.03;12.53;;;3.30;89.00;;;;;;5053559;28;20433;-73
2021/01/04 11:09:15;;;;;;;34.00;13.23;;;3.30;89.00;;;;;;5054211;28;20027;-73
2021/01/04 11:11:50;;;;;;;36.50;14.40;;;3.30;89.00;;;;;;5053525;28;20035;-73
2021/01/04 11:14:20;;;;;;;31.60;12.67;;;3.30;88.80;;;;;;5052997;28;20025;-74
2021/01/04 11:16:49;;;;;;;36.87;13.47;;;3.30;89.00;;;;;;5053374;28;20052;-73
2021/01/04 11:19:28;;;;;;;33.13;13.70;;;3.30;88.80;;;;;;5052761;28;20055;-73
2021/01/04 11:21:54;;;;;;;29.00;12.57;;;3.30;89.00;;;;;;5052928;28;20029;-73
2021/01/04 11:24:20;;;;;;;32.93;13.67;;;3.30;89.00;;;;;;5053952;28;20420;-73
2021/01/04 11:26:46;;;;;;;30.33;13.43;;;3.30;89.10;;;;;;5054395;28;20049;-73
2021/01/04 11:29:12;;;;;;;30.07;12.33;;;3.30;89.20;;;;;;5053920;28;20489;-73
2021/01/04 11:31:38;;;;;;;28.83;12.73;;;3.40;89.20;;;;;;5053153;28;20021;-73
2021/01/04 11:34:05;;;;;;;32.77;12.97;;;3.40;88.80;;;;;;5054457;28;20104;-73
2021/01/04 11:36:31;;;;;;;28.57;12.93;;;3.30;88.70;;;;;;5053823;28;20025;-73
2021/01/04 11:38:57;;;;;;;30.27;13.13;;;3.40;89.10;;;;;;5054241;28;20047;-73
2021/01/04 11:41:23;;;;;;;30.40;13.27;;;3.40;88.80;;;;;;5053294;28;20382;-73
2021/01/04 11:43:50;;;;;;;28.70;12.37;;;3.40;89.00;;;;;;5054192;28;20031;-74
2021/01/04 11:46:17;;;;;;;33.97;13.40;;;3.40;89.00;;;;;;5053479;28;20079;-73
2021/01/04 11:48:43;;;;;;;32.30;13.67;;;3.40;88.50;;;;;;5053902;28;20386;-73
2021/01/04 11:51:09;;;;;;;31.37;13.33;;;3.50;88.80;;;;;;5053131;28;20033;-72
2021/01/04 11:53:35;;;;;;;30.70;12.33;;;3.50;89.10;;;;;;5054031;28;20115;-73
2021/01/04 11:56:01;;;;;;;32.10;13.20;;;3.50;89.40;;;;;;5052697;28;20021;-73
2021/01/04 11:58:27;;;;;;;28.37;12.70;;;3.60;89.20;;;;;;5052069;28;20033;-73
2021/01/04 12:00:53;;;;;;;30.03;12.20;;;3.60;89.20;;;;;;5053860;28;20108;-73
2021/01/04 12:03:19;;;;;;;28.37;12.67;;;3.60;88.50;;;;;;5053232;28;20053;-73
2021/01/04 12:05:45;;;;;;;33.53;14.17;;;3.50;88.10;;;;;;5053464;28;20414;-73
2021/01/04 12:08:11;;;;;;;28.83;13.13;;;3.50;88.60;;;;;;5053117;28;20080;-73
2021/01/04 12:10:36;;;;;;;28.57;12.03;;;3.60;88.70;;;;;;5053765;28;20078;-73
2021/01/04 12:13:03;;;;;;;32.70;12.97;;;3.60;88.70;;;;;;5051484;28;20381;-73
2021/01/04 12:15:29;;;;;;;31.50;12.67;;;3.60;88.10;;;;;;5052976;28;20325;-73
2021/01/04 12:17:54;;;;;;;32.10;14.30;;;3.60;88.00;;;;;;5052180;28;20536;-73
2021/01/04 12:20:20;;;;;;;28.97;12.67;;;3.60;87.40;;;;;;5052551;28;20029;-73
2021/01/04 12:22:47;;;;;;;30.00;13.37;;;3.70;87.80;;;;;;5053780;28;20099;-73
2021/01/04 12:25:13;;;;;;;27.57;12.33;;;3.70;87.60;;;;;;5052389;28;20482;-73
2021/01/04 12:27:39;;;;;;;33.40;13.27;;;3.70;87.30;;;;;;5051841;28;20067;-73
2021/01/04 12:30:06;;;;;;;29.77;12.90;;;3.70;87.80;;;;;;5053328;28;20414;-73
2021/01/04 12:32:32;;;;;;;30.73;14.07;;;3.70;88.10;;;;;;5052682;28;20024;-73
2021/01/04 12:34:58;;;;;;;30.77;13.10;;;3.80;87.60;;;;;;5053233;28;20520;-73
2021/01/04 12:37:24;;;;;;;30.23;13.13;;;3.70;87.20;;;;;;5051243;28;20036;-73
2021/01/04 12:39:50;;;;;;;32.80;14.27;;;3.80;87.60;;;;;;5051815;28;20025;-73
2021/01/04 12:42:16;;;;;;;31.77;12.87;;;3.80;87.50;;;;;;5052495;28;20025;-73
2021/01/04 12:44:42;;;;;;;29.47;13.17;;;3.70;87.80;;;;;;5051912;28;20470;-73
2021/01/04 12:47:07;;;;;;;27.43;12.50;;;3.70;87.00;;;;;;5052869;28;20036;-73
2021/01/04 12:49:34;;;;;;;32.53;12.90;;;3.70;87.30;;;;;;5052046;28;20389;-73
2021/01/04 12:52:00;;;;;;;31.90;13.17;;;3.70;87.60;;;;;;5051749;28;20461;-73
2021/01/04 12:54:28;;;;;;;31.43;14.03;;;3.70;87.90;;;;;;5051051;28;20024;-73
2021/01/04 12:56:59;;;;;;;31.67;13.57;;;3.70;87.70;;;;;;5051583;28;20059;-73
2021/01/04 12:59:26;;;;;;;34.07;13.70;;;3.70;87.50;;;;;;5051026;28;20074;-73
2021/01/04 13:01:52;;;;;;;27.87;12.40;;;3.70;87.50;;;;;;5052609;28;20029;-73
2021/01/04 13:04:19;;;;;;;32.30;13.80;;;3.70;87.00;;;;;;5051007;28;20025;-73
2021/01/04 13:06:45;;;;;;;29.87;12.87;;;3.80;87.10;;;;;;5051597;28;20033;-73
2021/01/04 13:09:11;;;;;;;30.70;13.27;;;3.80;87.30;;;;;;5051480;28;20520;-73
2021/01/04 13:11:37;;;;;;;32.67;12.77;;;3.80;87.30;;;;;;5052428;28;20056;-73
2021/01/04 13:14:02;;;;;;;30.87;13.60;;;3.80;87.10;;;;;;5052601;28;20110;-73
2021/01/04 13:16:36;;;;;;;31.20;12.87;;;3.80;87.30;;;;;;5050511;28;20389;-73
2021/01/04 13:19:02;;;;;;;30.77;13.13;;;3.80;87.30;;;;;;5052577;28;20481;-73
2021/01/04 13:21:28;;;;;;;31.27;12.73;;;3.80;87.40;;;;;;5050561;28;20025;-73
2021/01/04 13:23:53;;;;;;;31.97;13.63;;;3.80;87.10;;;;;;5052171;28;20044;-73